createdAt,value
2023-05-05T00:01:39.360Z,99977.91
2023-05-05T00:04:42.646Z,99991.00
2023-05-05T00:07:45.391Z,99982.88
2023-05-05T00:10:50.613Z,99982.94
2023-05-05T00:13:53.548Z,99982.56
2023-05-05T00:16:56.558Z,99975.25
2023-05-05T00:19:59.949Z,99973.38
2023-05-05T00:23:03.154Z,99976.75
2023-05-05T00:26:05.821Z,99966.38
2023-05-05T00:29:08.857Z,99969.44
2023-05-05T00:32:11.789Z,99953.47
2023-05-05T00:35:15.923Z,99958.88
2023-05-05T00:38:19.540Z,99966.66
2023-05-05T00:41:23.134Z,99964.19
2023-05-05T00:44:40.457Z,99976.47
2023-05-05T00:48:04.904Z,99965.69
2023-05-05T00:51:09.386Z,99964.63
2023-05-05T00:54:12.297Z,99962.56
2023-05-05T00:57:15.082Z,99967.59
2023-05-05T01:00:18.220Z,99954.31
2023-05-05T01:03:21.125Z,99964.69
2023-05-05T01:06:52.875Z,99967.59
2023-05-05T01:10:20.448Z,99960.91
2023-05-05T01:13:52.290Z,99959.69
2023-05-05T01:17:08.787Z,99953.25
2023-05-05T01:20:33.234Z,99957.25
2023-05-05T01:23:45.673Z,99942.53
2023-05-05T01:27:34.275Z,99955.37
2023-05-05T01:30:46.276Z,99960.97
2023-05-05T01:33:54.736Z,99958.75
2023-05-05T01:37:08.344Z,99960.81
2023-05-05T01:40:13.705Z,99954.16
2023-05-05T01:43:20.156Z,99951.44
2023-05-05T01:46:24.864Z,99940.22
2023-05-05T01:49:28.340Z,99951.62
2023-05-05T01:52:32.420Z,99953.94
2023-05-05T01:55:37.042Z,99956.06
2023-05-05T01:58:42.380Z,99960.59
2023-05-05T02:01:47.325Z,99957.28
2023-05-05T02:04:53.150Z,99959.62
2023-05-05T02:07:58.943Z,99959.44
2023-05-05T02:11:02.242Z,99957.13
2023-05-05T02:14:07.992Z,99953.53
2023-05-05T02:17:12.743Z,99954.59
2023-05-05T02:20:17.125Z,99950.00
2023-05-05T02:23:20.612Z,99949.19
2023-05-05T02:26:24.372Z,99942.72
2023-05-05T02:29:34.209Z,99946.28
2023-05-05T02:32:46.661Z,99951.94
2023-05-05T02:35:53.468Z,99941.19
2023-05-05T02:39:01.535Z,99944.88
2023-05-05T02:42:09.208Z,99949.31
2023-05-05T02:45:16.590Z,99943.09
2023-05-05T02:48:21.162Z,99942.91
2023-05-05T02:51:24.741Z,99943.09
2023-05-05T02:54:28.402Z,99943.91
2023-05-05T02:57:52.636Z,99931.87
2023-05-05T03:01:07.376Z,99935.06
2023-05-05T03:04:23.041Z,99945.88
2023-05-05T03:07:30.943Z,99954.44
2023-05-05T03:10:41.335Z,99954.84
2023-05-05T03:13:48.404Z,99946.31
2023-05-05T03:16:53.981Z,99933.22
2023-05-05T03:19:57.573Z,99945.25
2023-05-05T03:23:02.229Z,99937.38
2023-05-05T03:26:05.158Z,99943.59
2023-05-05T03:29:08.579Z,99945.66
2023-05-05T03:32:13.671Z,99929.03
2023-05-05T03:35:16.554Z,99925.78
2023-05-05T03:38:19.851Z,99927.91
2023-05-05T03:41:23.765Z,99945.38
2023-05-05T03:44:27.242Z,99946.19
2023-05-05T03:47:30.008Z,99943.47
2023-05-05T03:50:33.109Z,99936.38
2023-05-05T03:53:36.212Z,99956.66
2023-05-05T03:56:40.456Z,99955.97
2023-05-05T03:59:43.141Z,99957.84
2023-05-05T04:02:46.236Z,99965.06
2023-05-05T04:05:49.973Z,99963.75
2023-05-05T04:08:52.809Z,99968.75
2023-05-05T04:11:55.725Z,99967.84
2023-05-05T04:14:59.038Z,99968.56
2023-05-05T04:18:02.222Z,99962.53
2023-05-05T04:21:05.085Z,99968.09
2023-05-05T04:24:08.363Z,99969.44
2023-05-05T04:27:11.001Z,99973.06
2023-05-05T04:30:15.036Z,99974.50
2023-05-05T04:33:17.775Z,99964.09
2023-05-05T04:36:21.602Z,99980.25
2023-05-05T04:39:24.560Z,99964.56
2023-05-05T04:42:27.929Z,99970.09
2023-05-05T04:45:30.747Z,99973.16
2023-05-05T04:48:34.503Z,99970.44
2023-05-05T04:51:41.532Z,99976.72
2023-05-05T04:54:45.000Z,99984.22
2023-05-05T04:57:47.600Z,99987.66
2023-05-05T05:00:50.704Z,99990.44
2023-05-05T05:03:54.982Z,99979.22
2023-05-05T05:06:59.355Z,99985.22
2023-05-05T05:10:02.804Z,99988.56
2023-05-05T05:13:05.830Z,99990.97
2023-05-05T05:16:08.533Z,99994.69
2023-05-05T05:19:11.563Z,99983.00
2023-05-05T05:22:14.994Z,99981.41
2023-05-05T05:25:18.311Z,99994.09
2023-05-05T05:28:22.953Z,99979.69
2023-05-05T05:31:26.308Z,99998.75
2023-05-05T05:34:30.107Z,99992.84
2023-05-05T05:37:34.930Z,99986.69
2023-05-05T05:40:38.300Z,99987.59
2023-05-05T05:43:41.787Z,99991.84
2023-05-05T05:46:44.783Z,99982.19
2023-05-05T05:49:47.872Z,99981.94
2023-05-05T05:52:51.076Z,99971.91
2023-05-05T05:55:54.073Z,99979.06
2023-05-05T05:58:56.941Z,99979.03
2023-05-05T06:02:00.101Z,99979.88
2023-05-05T06:05:03.917Z,99979.00
2023-05-05T06:08:07.024Z,99989.62
2023-05-05T06:11:10.700Z,99986.56
2023-05-05T06:14:13.959Z,99983.34
2023-05-05T06:17:16.999Z,99970.34
2023-05-05T06:20:19.676Z,99971.19
2023-05-05T06:23:22.780Z,99980.28
2023-05-05T06:26:26.089Z,99983.41
2023-05-05T06:29:29.218Z,99986.16
2023-05-05T06:32:36.186Z,99975.41
2023-05-05T06:35:39.264Z,99979.34
2023-05-05T06:38:42.107Z,99984.88
2023-05-05T06:41:45.152Z,99974.62
2023-05-05T06:44:48.069Z,99977.78
2023-05-05T06:47:51.118Z,99980.13
2023-05-05T06:50:53.781Z,99964.63
2023-05-05T06:53:56.965Z,99971.56
2023-05-05T06:56:59.747Z,99965.84
2023-05-05T07:00:11.340Z,99960.53
2023-05-05T07:03:14.532Z,99962.47
2023-05-05T07:06:17.729Z,99966.25
2023-05-05T07:09:20.407Z,99967.28
2023-05-05T07:12:23.423Z,99964.03
2023-05-05T07:15:29.118Z,99970.22
2023-05-05T07:18:33.228Z,99972.59
2023-05-05T07:21:36.736Z,99962.97
2023-05-05T07:24:39.736Z,99968.09
2023-05-05T07:27:42.523Z,99959.03
2023-05-05T07:30:45.496Z,99968.56
2023-05-05T07:33:48.335Z,99966.31
2023-05-05T07:36:51.421Z,99965.59
2023-05-05T07:39:54.313Z,99957.09
2023-05-05T07:42:58.610Z,99966.66
2023-05-05T07:46:01.611Z,99959.44
2023-05-05T07:49:04.658Z,99964.22
2023-05-05T07:52:07.320Z,99953.94
2023-05-05T07:55:10.617Z,99959.34
2023-05-05T07:58:13.576Z,99954.91
2023-05-05T08:01:16.707Z,99954.91
2023-05-05T08:04:19.833Z,99958.91
2023-05-05T08:07:23.120Z,99966.81
2023-05-05T08:10:26.184Z,99958.84
2023-05-05T08:13:30.416Z,99961.69
2023-05-05T08:16:33.767Z,99962.44
2023-05-05T08:19:36.623Z,99961.97
2023-05-05T08:22:40.768Z,99954.87
2023-05-05T08:25:43.881Z,99959.06
2023-05-05T08:28:47.229Z,99961.47
2023-05-05T08:31:49.983Z,99950.34
2023-05-05T08:34:53.120Z,99956.91
2023-05-05T08:37:58.142Z,99964.41
2023-05-05T08:41:02.240Z,99959.88
2023-05-05T08:44:05.311Z,99960.03
2023-05-05T08:47:11.471Z,99960.75
2023-05-05T08:50:14.267Z,99963.66
2023-05-05T08:53:18.162Z,99958.53
2023-05-05T08:56:24.818Z,99957.94
2023-05-05T08:59:33.016Z,99945.06
2023-05-05T09:02:37.196Z,99942.72
2023-05-05T09:05:42.951Z,99942.78
2023-05-05T09:08:47.096Z,99954.22
2023-05-05T09:11:52.901Z,99947.84
2023-05-05T09:14:57.896Z,99945.22
2023-05-05T09:18:03.698Z,99948.16
2023-05-05T09:21:21.382Z,99946.63
2023-05-05T09:24:24.565Z,99946.50
2023-05-05T09:27:27.406Z,99938.59
2023-05-05T09:30:30.381Z,99927.66
2023-05-05T09:33:33.025Z,99933.63
2023-05-05T09:36:49.216Z,99933.34
2023-05-05T09:39:55.816Z,99929.72
2023-05-05T09:43:02.920Z,99940.97
2023-05-05T09:46:07.821Z,99927.41
2023-05-05T09:49:18.397Z,99934.13
2023-05-05T09:52:21.481Z,99933.41
2023-05-05T09:55:25.656Z,99934.72
2023-05-05T09:58:30.879Z,99931.38
2023-05-05T10:01:33.988Z,99923.94
2023-05-05T10:04:37.101Z,99926.91
2023-05-05T10:07:41.462Z,99923.69
2023-05-05T10:10:52.063Z,99917.53
2023-05-05T10:13:55.284Z,99909.75
2023-05-05T10:17:00.910Z,99903.56
2023-05-05T10:20:04.557Z,99913.25
2023-05-05T10:23:10.486Z,99916.28
2023-05-05T10:26:14.828Z,99905.53
2023-05-05T10:29:30.294Z,99901.25
2023-05-05T10:32:59.309Z,99898.62
2023-05-05T10:36:07.768Z,99896.81
2023-05-05T10:39:11.962Z,99881.25
2023-05-05T10:42:17.394Z,99895.19
2023-05-05T10:45:20.114Z,99887.00
2023-05-05T10:48:32.740Z,99884.88
2023-05-05T10:51:56.984Z,99884.59
2023-05-05T10:55:01.329Z,99881.09
2023-05-05T10:58:04.004Z,99865.06
2023-05-05T11:01:07.947Z,99870.81
2023-05-05T11:04:20.980Z,99861.47
2023-05-05T11:07:24.550Z,99865.22
2023-05-05T11:10:44.354Z,99866.88
2023-05-05T11:13:47.660Z,99858.97
2023-05-05T11:16:50.616Z,99847.06
2023-05-05T11:19:53.697Z,99846.78
2023-05-05T11:23:02.291Z,99851.69
2023-05-05T11:26:05.267Z,99839.44
2023-05-05T11:29:08.278Z,99835.81
2023-05-05T11:32:15.863Z,99839.03
2023-05-05T11:35:18.781Z,99840.72
2023-05-05T11:39:06.579Z,99836.25
2023-05-05T11:42:25.671Z,99826.78
2023-05-05T11:45:29.702Z,99831.25
2023-05-05T11:48:32.419Z,99828.16
2023-05-05T11:51:35.808Z,99822.59
2023-05-05T11:54:48.699Z,99812.09
2023-05-05T11:57:52.214Z,99818.00
2023-05-05T12:00:55.071Z,99817.22
2023-05-05T12:03:59.150Z,99803.47
2023-05-05T12:07:02.244Z,99814.28
2023-05-05T12:10:07.002Z,99820.72
2023-05-05T12:13:20.117Z,99819.97
2023-05-05T12:16:23.416Z,99817.16
2023-05-05T12:19:30.243Z,99809.25
2023-05-05T12:22:33.349Z,99817.97
2023-05-05T12:25:38.345Z,99801.19
2023-05-05T12:28:46.566Z,99808.34
2023-05-05T12:31:49.546Z,99806.09
2023-05-05T12:34:57.610Z,99802.47
2023-05-05T12:38:00.499Z,99794.72
2023-05-05T12:41:03.674Z,99788.78
2023-05-05T12:44:06.741Z,99796.53
2023-05-05T12:47:11.144Z,99790.81
2023-05-05T12:50:13.800Z,99789.53
2023-05-05T12:53:24.145Z,99779.87
2023-05-05T12:56:52.761Z,99783.44
2023-05-05T12:59:56.673Z,99780.78
2023-05-05T13:02:59.592Z,99772.09
2023-05-05T13:06:18.304Z,99767.50
2023-05-05T13:09:28.200Z,99764.81
2023-05-05T13:12:31.355Z,99756.59
2023-05-05T13:15:34.256Z,99757.69
2023-05-05T13:18:47.500Z,99755.81
2023-05-05T13:21:54.176Z,99745.84
2023-05-05T13:24:57.249Z,99747.91
2023-05-05T13:28:00.715Z,99744.38
2023-05-05T13:31:03.705Z,99731.16
2023-05-05T13:34:06.805Z,99737.31
2023-05-05T13:37:09.871Z,99727.34
2023-05-05T13:40:13.888Z,99735.59
2023-05-05T13:43:16.848Z,99722.31
2023-05-05T13:46:20.337Z,99718.41
2023-05-05T13:49:23.736Z,99721.31
2023-05-05T13:52:27.579Z,99724.78
2023-05-05T13:55:31.283Z,99708.16
2023-05-05T13:58:35.003Z,99711.69
2023-05-05T14:01:39.698Z,99705.13
2023-05-05T14:04:42.971Z,99695.87
2023-05-05T14:07:46.261Z,99703.47
2023-05-05T14:10:50.199Z,99696.41
2023-05-05T14:13:54.965Z,99699.41
2023-05-05T14:16:57.997Z,99705.78
2023-05-05T14:20:00.875Z,99706.78
2023-05-05T14:23:03.874Z,99686.69
2023-05-05T14:26:06.653Z,99688.41
2023-05-05T14:29:19.252Z,99693.34
2023-05-05T14:32:23.166Z,99688.59
2023-05-05T14:35:26.243Z,99687.81
2023-05-05T14:38:28.923Z,99673.59
2023-05-05T14:41:32.064Z,99683.03
2023-05-05T14:44:34.668Z,99680.25
2023-05-05T14:47:37.677Z,99676.81
2023-05-05T14:50:42.331Z,99681.37
2023-05-05T14:53:45.833Z,99677.19
2023-05-05T14:56:48.510Z,99682.78
2023-05-05T14:59:53.104Z,99670.03
2023-05-05T15:02:56.120Z,99682.72
2023-05-05T15:05:59.545Z,99672.94
2023-05-05T15:09:02.221Z,99681.84
2023-05-05T15:12:05.725Z,99670.38
2023-05-05T15:15:08.946Z,99679.06
2023-05-05T15:18:12.321Z,99681.87
2023-05-05T15:21:14.966Z,99675.19
2023-05-05T15:24:18.138Z,99684.16
2023-05-05T15:27:20.888Z,99678.09
2023-05-05T15:30:23.976Z,99676.97
2023-05-05T15:33:26.665Z,99678.41
2023-05-05T15:36:29.739Z,99673.16
2023-05-05T15:39:32.453Z,99666.59
2023-05-05T15:42:35.435Z,99661.34
2023-05-05T15:45:41.179Z,99669.19
2023-05-05T15:48:44.333Z,99660.19
2023-05-05T15:51:48.405Z,99659.22
2023-05-05T15:54:51.384Z,99650.78
2023-05-05T15:57:54.920Z,99655.06
2023-05-05T16:00:57.988Z,99649.81
2023-05-05T16:04:01.297Z,99653.94
2023-05-05T16:07:04.018Z,99648.25
2023-05-05T16:10:08.292Z,99645.97
2023-05-05T16:13:11.030Z,99626.53
2023-05-05T16:16:13.944Z,99637.28
2023-05-05T16:19:16.624Z,99631.75
2023-05-05T16:22:21.019Z,99629.13
2023-05-05T16:25:23.768Z,99633.38
2023-05-05T16:28:26.879Z,99633.66
2023-05-05T16:31:30.003Z,99632.50
2023-05-05T16:34:33.142Z,99633.28
2023-05-05T16:37:35.871Z,99626.75
2023-05-05T16:40:39.040Z,99633.56
2023-05-05T16:43:41.940Z,99624.41
2023-05-05T16:46:45.042Z,99625.50
2023-05-05T16:49:48.002Z,99617.66
2023-05-05T16:52:51.464Z,99631.94
2023-05-05T16:55:54.256Z,99628.44
2023-05-05T16:58:57.191Z,99626.66
2023-05-05T17:02:00.179Z,99627.34
2023-05-05T17:05:03.618Z,99628.25
2023-05-05T17:08:06.977Z,99634.87
2023-05-05T17:11:11.870Z,99631.88
2023-05-05T17:14:14.765Z,99627.81
2023-05-05T17:17:17.780Z,99640.81
2023-05-05T17:20:20.600Z,99630.88
2023-05-05T17:23:23.743Z,99634.94
2023-05-05T17:26:26.443Z,99640.00
2023-05-05T17:29:29.404Z,99642.53
2023-05-05T17:32:32.126Z,99629.66
2023-05-05T17:35:35.213Z,99647.00
2023-05-05T17:38:37.971Z,99646.75
2023-05-05T17:41:42.445Z,99648.75
2023-05-05T17:44:46.956Z,99633.97
2023-05-05T17:47:50.698Z,99650.16
2023-05-05T17:50:53.447Z,99648.25
2023-05-05T17:53:57.146Z,99659.16
2023-05-05T17:56:59.849Z,99659.94
2023-05-05T18:00:04.679Z,99658.19
2023-05-05T18:03:16.474Z,99664.41
2023-05-05T18:06:19.719Z,99656.56
2023-05-05T18:09:23.472Z,99657.50
2023-05-05T18:12:26.942Z,99654.81
2023-05-05T18:15:32.355Z,99657.66
2023-05-05T18:18:35.946Z,99651.44
2023-05-05T18:21:39.122Z,99639.41
2023-05-05T18:24:42.554Z,99657.28
2023-05-05T18:27:45.864Z,99661.91
2023-05-05T18:30:49.011Z,99669.34
2023-05-05T18:33:51.767Z,99660.53
2023-05-05T18:36:55.364Z,99676.97
2023-05-05T18:39:58.179Z,99682.97
2023-05-05T18:43:01.294Z,99677.47
2023-05-05T18:46:03.969Z,99685.06
2023-05-05T18:49:07.508Z,99676.25
2023-05-05T18:52:10.263Z,99683.91
2023-05-05T18:55:13.376Z,99686.84
2023-05-05T18:58:16.861Z,99680.97
2023-05-05T19:01:20.431Z,99682.00
2023-05-05T19:04:30.823Z,99689.06
2023-05-05T19:07:35.754Z,99694.47
2023-05-05T19:10:38.609Z,99683.72
2023-05-05T19:13:42.488Z,99696.00
2023-05-05T19:16:45.726Z,99705.19
2023-05-05T19:19:48.917Z,99709.00
2023-05-05T19:22:52.009Z,99715.47
2023-05-05T19:25:55.031Z,99693.22
2023-05-05T19:28:57.744Z,99710.19
2023-05-05T19:32:00.826Z,99698.28
2023-05-05T19:35:03.695Z,99697.91
2023-05-05T19:38:06.638Z,99724.41
2023-05-05T19:41:09.322Z,99717.25
2023-05-05T19:44:12.313Z,99725.38
2023-05-05T19:47:15.096Z,99722.59
2023-05-05T19:50:18.272Z,99723.88
2023-05-05T19:53:21.053Z,99717.00
2023-05-05T19:56:24.085Z,99711.19
2023-05-05T19:59:26.836Z,99718.50
2023-05-05T20:02:29.919Z,99708.56
2023-05-05T20:05:32.944Z,99712.88
2023-05-05T20:08:35.986Z,99696.63
2023-05-05T20:11:41.143Z,99701.84
2023-05-05T20:14:44.241Z,99708.66
2023-05-05T20:17:48.158Z,99709.38
2023-05-05T20:20:51.340Z,99697.75
2023-05-05T20:23:54.662Z,99701.56
2023-05-05T20:26:57.412Z,99708.03
2023-05-05T20:30:00.444Z,99706.06
2023-05-05T20:33:03.256Z,99701.38
2023-05-05T20:36:07.373Z,99695.84
2023-05-05T20:39:15.663Z,99693.84
2023-05-05T20:42:18.961Z,99697.34
2023-05-05T20:45:21.925Z,99685.22
2023-05-05T20:48:24.899Z,99696.19
2023-05-05T20:51:31.555Z,99689.91
2023-05-05T20:54:35.090Z,99686.28
2023-05-05T20:57:37.782Z,99685.56
2023-05-05T21:00:40.825Z,99689.09
2023-05-05T21:03:43.837Z,99693.66
2023-05-05T21:06:46.871Z,99682.44
2023-05-05T21:09:49.832Z,99683.75
2023-05-05T21:12:53.058Z,99680.47
2023-05-05T21:15:55.973Z,99681.22
2023-05-05T21:18:59.237Z,99665.78
2023-05-05T21:22:02.283Z,99672.94
2023-05-05T21:25:17.308Z,99662.12
2023-05-05T21:28:20.008Z,99664.38
2023-05-05T21:31:23.487Z,99658.59
2023-05-05T21:34:26.796Z,99646.69
2023-05-05T21:37:29.841Z,99657.59
2023-05-05T21:40:32.613Z,99654.31
2023-05-05T21:43:35.568Z,99649.28
2023-05-05T21:46:38.229Z,99650.09
2023-05-05T21:49:41.381Z,99649.75
2023-05-05T21:52:44.500Z,99640.66
2023-05-05T21:55:47.965Z,99650.31
2023-05-05T21:58:50.712Z,99650.72
2023-05-05T22:01:53.940Z,99650.87
2023-05-05T22:04:57.079Z,99665.47
2023-05-05T22:07:59.755Z,99655.91
2023-05-05T22:11:02.788Z,99663.72
2023-05-05T22:14:06.079Z,99674.38
2023-05-05T22:17:09.108Z,99659.44
2023-05-05T22:20:12.240Z,99664.03
2023-05-05T22:23:16.188Z,99651.03
2023-05-05T22:26:18.840Z,99679.19
2023-05-05T22:29:21.883Z,99670.31
2023-05-05T22:32:24.615Z,99669.50
2023-05-05T22:35:28.066Z,99652.97
2023-05-05T22:38:30.815Z,99663.38
2023-05-05T22:41:34.303Z,99656.78
2023-05-05T22:44:38.520Z,99650.87
2023-05-05T22:47:41.667Z,99656.81
2023-05-05T22:50:44.402Z,99665.06
2023-05-05T22:53:47.716Z,99658.22
2023-05-05T22:56:50.370Z,99660.56
2023-05-05T22:59:53.405Z,99658.37
2023-05-05T23:02:56.181Z,99654.22
2023-05-05T23:05:59.104Z,99662.84
2023-05-05T23:09:02.144Z,99664.50
2023-05-05T23:12:06.173Z,99656.34
2023-05-05T23:15:10.042Z,99663.81
2023-05-05T23:18:13.395Z,99669.75
2023-05-05T23:21:16.229Z,99660.44
2023-05-05T23:24:19.303Z,99664.53
2023-05-05T23:27:23.074Z,99672.94
2023-05-05T23:30:26.051Z,99671.28
2023-05-05T23:33:29.347Z,99662.53
2023-05-05T23:36:32.408Z,99662.44
2023-05-05T23:39:35.072Z,99652.03
2023-05-05T23:42:38.080Z,99650.16
2023-05-05T23:45:40.656Z,99632.31
2023-05-05T23:48:43.630Z,99649.59
2023-05-05T23:51:46.382Z,99652.88
2023-05-05T23:54:49.520Z,99651.69
2023-05-05T23:57:53.160Z,99658.44
